Time,TemperatureF,DewpointF,PressureIn,WindDirection,WindDirectionDegrees,WindSpeedMPH,WindSpeedGustMPH,Humidity,HourlyPrecipIn,Conditions,Clouds,dailyrainin,SoftwareType,DateUTC
2013-03-06 00:02:00,36.0,32.0,29.82,ENE,75,11.0,13.0,85,0.00,,,0.00,,2013-03-06 05:02:00,
2013-03-06 00:12:00,36.0,32.0,29.82,ENE,75,11.0,13.0,85,0.00,,,0.00,,2013-03-06 05:12:00,
2013-03-06 00:22:00,35.0,31.0,29.82,SE,124,5.0,15.0,86,0.00,,,0.00,,2013-03-06 05:22:00,
2013-03-06 00:32:00,35.0,32.0,29.82,ESE,116,5.0,13.0,87,0.00,,,0.00,,2013-03-06 05:32:00,
2013-03-06 00:42:00,35.0,32.0,29.82,ESE,116,5.0,13.0,87,0.00,,,0.00,,2013-03-06 05:42:00,
2013-03-06 00:52:00,35.0,32.0,29.82,East,100,8.0,13.0,89,0.00,,,0.00,,2013-03-06 05:52:00,
2013-03-06 01:02:00,34.0,31.0,29.82,East,87,8.0,13.0,89,0.00,,,0.00,,2013-03-06 06:02:00,
2013-03-06 01:11:00,34.0,31.0,29.82,East,87,8.0,13.0,89,0.00,,,0.00,,2013-03-06 06:11:00,
2013-03-06 01:22:00,34.0,30.0,29.82,ESE,114,8.0,13.0,84,0.00,,,0.00,,2013-03-06 06:22:00,
2013-03-06 01:32:00,34.0,29.0,29.82,ESE,116,8.0,11.0,82,0.00,,,0.00,,2013-03-06 06:32:00,
2013-03-06 01:42:00,34.0,29.0,29.82,ESE,116,8.0,11.0,82,0.00,,,0.00,,2013-03-06 06:42:00,
2013-03-06 01:52:00,34.0,28.0,29.82,ESE,104,5.0,11.0,77,0.00,,,0.00,,2013-03-06 06:52:00,
2013-03-06 02:01:00,34.0,26.0,29.82,ESE,110,12.0,13.0,73,0.00,,,0.00,,2013-03-06 07:01:00,
2013-03-06 02:11:00,34.0,26.0,29.82,ESE,110,12.0,13.0,73,0.00,,,0.00,,2013-03-06 07:11:00,
2013-03-06 02:22:00,34.0,27.0,29.82,ESE,117,9.0,13.0,74,0.00,,,0.00,,2013-03-06 07:22:00,
2013-03-06 02:32:00,32.0,27.0,29.82,ENE,70,8.0,14.0,82,0.00,,,0.00,,2013-03-06 07:32:00,
2013-03-06 02:42:00,32.0,27.0,29.82,ENE,70,8.0,14.0,82,0.00,,,0.00,,2013-03-06 07:42:00,
2013-03-06 02:52:00,32.0,25.0,29.82,NE,55,10.0,13.0,75,0.00,,,0.00,,2013-03-06 07:52:00,
2013-03-06 03:01:00,32.0,24.0,29.82,ENE,77,7.0,13.0,71,0.00,,,0.00,,2013-03-06 08:01:00,
2013-03-06 03:11:00,32.0,24.0,29.82,ENE,77,7.0,13.0,71,0.00,,,0.00,,2013-03-06 08:11:00,
2013-03-06 03:21:00,31.0,20.0,29.82,ESE,106,7.0,18.0,63,0.00,,,0.00,,2013-03-06 08:21:00,
2013-03-06 03:32:00,31.0,16.0,29.85,ESE,114,10.0,24.0,53,0.00,,,0.00,,2013-03-06 08:32:00,
2013-03-06 03:42:00,31.0,16.0,29.85,ESE,114,10.0,24.0,53,0.00,,,0.00,,2013-03-06 08:42:00,
2013-03-06 03:52:00,31.0,17.0,29.85,ESE,117,7.0,16.0,55,0.00,,,0.00,,2013-03-06 08:52:00,
2013-03-06 04:02:00,32.0,18.0,29.85,ENE,78,7.0,13.0,55,0.00,,,0.00,,2013-03-06 09:02:00,
2013-03-06 04:12:00,32.0,18.0,29.85,ENE,78,7.0,13.0,55,0.00,,,0.00,,2013-03-06 09:12:00,
2013-03-06 04:21:00,32.0,19.0,29.85,East,92,7.0,15.0,59,0.00,,,0.00,,2013-03-06 09:21:00,
2013-03-06 04:32:00,32.0,19.0,29.85,East,92,7.0,15.0,59,0.00,,,0.00,,2013-03-06 09:32:00,
2013-03-06 04:42:00,32.0,19.0,29.85,East,92,7.0,15.0,59,0.00,,,0.00,,2013-03-06 09:42:00,
2013-03-06 04:52:00,32.0,18.0,29.85,ENE,73,7.0,15.0,56,0.00,,,0.00,,2013-03-06 09:52:00,
2013-03-06 05:01:00,32.0,18.0,29.85,ENE,73,7.0,15.0,56,0.00,,,0.00,,2013-03-06 10:01:00,
2013-03-06 05:11:00,32.0,18.0,29.85,ENE,73,7.0,15.0,56,0.00,,,0.00,,2013-03-06 10:11:00,
2013-03-06 05:22:00,32.0,20.0,29.85,ENE,61,8.0,14.0,62,0.00,,,0.00,,2013-03-06 10:22:00,
2013-03-06 05:32:00,32.0,20.0,29.85,ENE,61,8.0,14.0,62,0.00,,,0.00,,2013-03-06 10:32:00,
2013-03-06 05:42:00,32.0,20.0,29.85,ENE,61,8.0,14.0,62,0.00,,,0.00,,2013-03-06 10:42:00,
2013-03-06 05:52:00,31.0,26.0,29.88,ENE,59,11.0,13.0,82,0.00,,,0.00,,2013-03-06 10:52:00,
2013-03-06 06:02:00,31.0,27.0,29.88,NE,53,10.0,15.0,84,0.00,,,0.00,,2013-03-06 11:02:00,
2013-03-06 06:11:00,31.0,27.0,29.88,NE,53,10.0,15.0,84,0.00,,,0.00,,2013-03-06 11:11:00,
2013-03-06 06:22:00,31.0,27.0,29.88,NE,46,13.0,15.0,85,0.00,,,0.00,,2013-03-06 11:22:00,
2013-03-06 06:32:00,31.0,27.0,29.88,NE,54,12.0,16.0,86,0.00,,,0.00,,2013-03-06 11:32:00,
2013-03-06 06:42:00,31.0,27.0,29.88,NE,54,12.0,16.0,86,0.00,,,0.00,,2013-03-06 11:42:00,
2013-03-06 06:52:00,31.0,28.0,29.88,ENE,66,12.0,19.0,87,0.00,,,0.00,,2013-03-06 11:52:00,
2013-03-06 07:02:00,31.0,28.0,29.91,NE,49,15.0,15.0,89,0.00,,,0.00,,2013-03-06 12:02:00,
2013-03-06 07:12:00,31.0,28.0,29.91,NE,49,15.0,15.0,89,0.00,,,0.00,,2013-03-06 12:12:00,
2013-03-06 07:22:00,31.0,28.0,29.91,ENE,58,15.0,18.0,89,0.00,,,0.00,,2013-03-06 12:22:00,
2013-03-06 07:33:00,31.0,28.0,29.91,ENE,63,10.0,15.0,87,0.00,,,0.00,,2013-03-06 12:33:00,
2013-03-06 07:42:00,31.0,28.0,29.91,ENE,63,10.0,15.0,87,0.00,,,0.00,,2013-03-06 12:42:00,
2013-03-06 07:53:00,31.0,28.0,29.91,NE,53,9.0,15.0,87,0.00,,,0.00,,2013-03-06 12:53:00,
2013-03-06 08:02:00,31.0,28.0,29.91,NE,53,11.0,14.0,87,0.00,,,0.00,,2013-03-06 13:02:00,
2013-03-06 08:12:00,31.0,28.0,29.91,NE,53,11.0,14.0,87,0.00,,,0.00,,2013-03-06 13:12:00,
2013-03-06 08:22:00,31.0,28.0,29.91,NE,52,12.0,16.0,89,0.00,,,0.00,,2013-03-06 13:22:00,
2013-03-06 08:32:00,31.0,28.0,29.94,ENE,62,11.0,13.0,89,0.00,,,0.00,,2013-03-06 13:32:00,
2013-03-06 08:42:00,31.0,28.0,29.94,ENE,62,11.0,13.0,89,0.00,,,0.00,,2013-03-06 13:42:00,
2013-03-06 08:52:00,31.0,28.0,29.94,ENE,59,11.0,18.0,90,0.00,,,0.00,,2013-03-06 13:52:00,
2013-03-06 09:02:00,31.0,28.0,29.97,NE,54,16.0,16.0,90,0.00,,,0.00,,2013-03-06 14:02:00,
2013-03-06 09:11:00,31.0,28.0,29.97,NE,54,16.0,16.0,90,0.00,,,0.00,,2013-03-06 14:11:00,
2013-03-06 09:22:00,32.0,29.0,29.97,East,85,9.0,13.0,89,0.00,,,0.00,,2013-03-06 14:22:00,
2013-03-06 09:32:00,32.0,29.0,30.00,ENE,62,9.0,14.0,89,0.00,,,0.00,,2013-03-06 14:32:00,
2013-03-06 09:42:00,32.0,29.0,30.00,ENE,62,9.0,14.0,89,0.00,,,0.00,,2013-03-06 14:42:00,
2013-03-06 09:53:00,33.0,30.0,30.00,ENE,58,14.0,14.0,89,0.00,,,0.00,,2013-03-06 14:53:00,
2013-03-06 10:02:00,33.0,30.0,30.00,ENE,58,14.0,14.0,89,0.00,,,0.00,,2013-03-06 15:02:00,
2013-03-06 10:12:00,33.0,30.0,30.00,ENE,58,14.0,14.0,89,0.00,,,0.00,,2013-03-06 15:12:00,
2013-03-06 10:22:00,33.0,29.0,30.03,ENE,59,9.0,14.0,86,0.00,,,0.00,,2013-03-06 15:22:00,
2013-03-06 10:32:00,33.0,29.0,30.03,NE,56,9.0,13.0,86,0.00,,,0.00,,2013-03-06 15:32:00,
2013-03-06 10:42:00,33.0,29.0,30.03,NE,56,9.0,13.0,86,0.00,,,0.00,,2013-03-06 15:42:00,
2013-03-06 10:52:00,33.0,29.0,30.03,ENE,57,13.0,14.0,86,0.00,,,0.00,,2013-03-06 15:52:00,
2013-03-06 11:02:00,33.0,29.0,30.03,NE,56,13.0,15.0,85,0.00,,,0.00,,2013-03-06 16:02:00,
2013-03-06 11:12:00,33.0,29.0,30.03,NE,56,13.0,15.0,85,0.00,,,0.00,,2013-03-06 16:12:00,
2013-03-06 11:21:00,34.0,30.0,30.03,East,80,9.0,15.0,84,0.00,,,0.00,,2013-03-06 16:21:00,
2013-03-06 11:32:00,35.0,30.0,30.03,ENE,69,8.0,12.0,82,0.00,,,0.00,,2013-03-06 16:32:00,
2013-03-06 11:42:00,35.0,30.0,30.03,ENE,69,8.0,12.0,82,0.00,,,0.00,,2013-03-06 16:42:00,
2013-03-06 11:52:00,35.0,29.0,30.03,ENE,66,8.0,14.0,79,0.00,,,0.00,,2013-03-06 16:52:00,
2013-03-06 12:01:00,35.0,28.0,30.06,ENE,57,10.0,13.0,76,0.00,,,0.00,,2013-03-06 17:01:00,
2013-03-06 12:11:00,35.0,28.0,30.06,ENE,57,10.0,13.0,76,0.00,,,0.00,,2013-03-06 17:11:00,
2013-03-06 12:22:00,35.0,28.0,30.06,East,91,10.0,13.0,75,0.00,,,0.00,,2013-03-06 17:22:00,
2013-03-06 12:32:00,35.0,28.0,30.06,East,91,10.0,13.0,75,0.00,,,0.00,,2013-03-06 17:32:00,
2013-03-06 12:42:00,35.0,28.0,30.06,East,91,10.0,13.0,75,0.00,,,0.00,,2013-03-06 17:42:00,
2013-03-06 12:53:00,35.0,29.0,30.09,East,80,9.0,12.0,78,0.00,,,0.00,,2013-03-06 17:53:00,
2013-03-06 13:02:00,35.0,29.0,30.09,ENE,77,10.0,12.0,79,0.00,,,0.00,,2013-03-06 18:02:00,
2013-03-06 13:29:00,35.0,29.0,30.09,East,92,6.0,10.0,77,0.00,,,0.00,,2013-03-06 18:29:00,
2013-03-06 13:42:00,35.0,29.0,30.09,East,92,6.0,10.0,77,0.00,,,0.00,,2013-03-06 18:42:00,
2013-03-06 13:53:00,37.0,27.0,30.09,East,96,8.0,11.0,68,0.00,,,0.00,,2013-03-06 18:53:00,
2013-03-06 14:02:00,37.0,27.0,30.09,East,96,8.0,11.0,68,0.00,,,0.00,,2013-03-06 19:02:00,
2013-03-06 14:11:00,37.0,27.0,30.09,East,96,8.0,11.0,68,0.00,,,0.00,,2013-03-06 19:11:00,
2013-03-06 14:22:00,36.0,26.0,30.09,East,84,7.0,10.0,68,0.00,,,0.00,,2013-03-06 19:22:00,
2013-03-06 14:32:00,36.0,25.0,30.09,East,82,5.0,11.0,63,0.00,,,0.00,,2013-03-06 19:32:00,
2013-03-06 14:43:00,36.0,25.0,30.09,East,82,5.0,11.0,63,0.00,,,0.00,,2013-03-06 19:43:00,
2013-03-06 14:53:00,37.0,24.0,30.09,East,92,5.0,9.0,60,0.00,,,0.00,,2013-03-06 19:53:00,
2013-03-06 15:02:00,37.0,24.0,30.09,East,100,9.0,9.0,59,0.00,,,0.00,,2013-03-06 20:02:00,
2013-03-06 15:12:00,37.0,24.0,30.09,East,100,9.0,9.0,59,0.00,,,0.00,,2013-03-06 20:12:00,
2013-03-06 15:22:00,37.0,24.0,30.09,ESE,108,9.0,11.0,59,0.00,,,0.00,,2013-03-06 20:22:00,
2013-03-06 15:32:00,37.0,24.0,30.12,ENE,76,8.0,10.0,58,0.00,,,0.00,,2013-03-06 20:32:00,
2013-03-06 15:42:00,37.0,24.0,30.12,ENE,76,8.0,10.0,58,0.00,,,0.00,,2013-03-06 20:42:00,
2013-03-06 15:52:00,37.0,25.0,30.12,East,96,7.0,9.0,61,0.00,,,0.00,,2013-03-06 20:52:00,
2013-03-06 16:02:00,37.0,25.0,30.12,ESE,105,8.0,9.0,61,0.00,,,0.00,,2013-03-06 21:02:00,
2013-03-06 16:12:00,37.0,25.0,30.12,ESE,105,8.0,9.0,61,0.00,,,0.00,,2013-03-06 21:12:00,
2013-03-06 16:22:00,37.0,25.0,30.15,ESE,114,3.0,8.0,62,0.00,,,0.00,,2013-03-06 21:22:00,
2013-03-06 16:32:00,37.0,25.0,30.15,East,93,4.0,6.0,62,0.00,,,0.00,,2013-03-06 21:32:00,
2013-03-06 16:42:00,37.0,25.0,30.15,East,93,4.0,6.0,62,0.00,,,0.00,,2013-03-06 21:42:00,
2013-03-06 16:52:00,36.0,25.0,30.15,ESE,110,3.0,7.0,63,0.00,,,0.00,,2013-03-06 21:52:00,
2013-03-06 17:02:00,36.0,25.0,30.15,East,83,5.0,6.0,64,0.00,,,0.00,,2013-03-06 22:02:00,
2013-03-06 17:11:00,36.0,25.0,30.15,East,83,5.0,6.0,64,0.00,,,0.00,,2013-03-06 22:11:00,
2013-03-06 17:22:00,36.0,26.0,30.18,East,99,4.0,6.0,66,0.00,,,0.00,,2013-03-06 22:22:00,
2013-03-06 17:32:00,36.0,26.0,30.18,East,91,5.0,7.0,67,0.00,,,0.00,,2013-03-06 22:32:00,
2013-03-06 17:42:00,36.0,26.0,30.18,East,91,5.0,7.0,67,0.00,,,0.00,,2013-03-06 22:42:00,
2013-03-06 17:52:00,35.0,26.0,30.18,ESE,106,5.0,8.0,69,0.00,,,0.00,,2013-03-06 22:52:00,
2013-03-06 18:01:00,35.0,26.0,30.18,East,94,5.0,9.0,70,0.00,,,0.00,,2013-03-06 23:01:00,
2013-03-06 18:11:00,35.0,26.0,30.18,East,94,5.0,9.0,70,0.00,,,0.00,,2013-03-06 23:11:00,
2013-03-06 18:22:00,35.0,26.0,30.18,East,90,5.0,6.0,70,0.00,,,0.00,,2013-03-06 23:22:00,
2013-03-06 18:32:00,35.0,26.0,30.18,East,90,5.0,6.0,70,0.00,,,0.00,,2013-03-06 23:32:00,
2013-03-06 18:42:00,35.0,26.0,30.18,East,90,5.0,6.0,70,0.00,,,0.00,,2013-03-06 23:42:00,
2013-03-06 18:52:00,35.0,28.0,30.18,ESE,116,5.0,6.0,74,0.00,,,0.00,,2013-03-06 23:52:00,
2013-03-06 19:02:00,35.0,28.0,30.21,ESE,107,0.0,6.0,74,0.00,,,0.00,,2013-03-07 00:02:00,
2013-03-06 19:11:00,35.0,28.0,30.21,ESE,107,0.0,6.0,74,0.00,,,0.00,,2013-03-07 00:11:00,
2013-03-06 19:22:00,34.0,27.0,30.21,East,93,5.0,5.0,75,0.00,,,0.00,,2013-03-07 00:22:00,
2013-03-06 19:32:00,34.0,27.0,30.21,East,93,5.0,5.0,75,0.00,,,0.00,,2013-03-07 00:32:00,
2013-03-06 19:42:00,34.0,27.0,30.21,East,93,5.0,5.0,75,0.00,,,0.00,,2013-03-07 00:42:00,
2013-03-06 19:52:00,34.0,27.0,30.21,East,93,0.0,6.0,76,0.00,,,0.00,,2013-03-07 00:52:00,
2013-03-06 20:01:00,34.0,27.0,30.21,East,93,0.0,6.0,76,0.00,,,0.00,,2013-03-07 01:01:00,
2013-03-06 20:12:00,34.0,27.0,30.21,East,93,0.0,6.0,76,0.00,,,0.00,,2013-03-07 01:12:00,
2013-03-06 20:21:00,34.0,28.0,30.21,SE,129,3.0,7.0,77,0.00,,,0.00,,2013-03-07 01:21:00,
2013-03-06 20:32:00,34.0,28.0,30.21,ESE,109,3.0,6.0,77,0.00,,,0.00,,2013-03-07 01:32:00,
2013-03-06 20:42:00,34.0,28.0,30.21,ESE,109,3.0,6.0,77,0.00,,,0.00,,2013-03-07 01:42:00,
2013-03-06 20:52:00,34.0,27.0,30.21,ESE,106,0.0,7.0,76,0.00,,,0.00,,2013-03-07 01:52:00,
2013-03-06 21:01:00,34.0,27.0,30.24,ESE,107,3.0,5.0,76,0.00,,,0.00,,2013-03-07 02:01:00,
2013-03-06 21:11:00,34.0,27.0,30.24,ESE,107,3.0,5.0,76,0.00,,,0.00,,2013-03-07 02:11:00,
2013-03-06 21:21:00,34.0,27.0,30.24,ESE,106,0.0,0.0,76,0.00,,,0.00,,2013-03-07 02:21:00,
2013-03-06 21:32:00,34.0,27.0,30.24,ESE,106,0.0,0.0,76,0.00,,,0.00,,2013-03-07 02:32:00,
2013-03-06 21:42:00,34.0,27.0,30.24,ESE,106,0.0,0.0,76,0.00,,,0.00,,2013-03-07 02:42:00,
2013-03-06 21:52:00,34.0,27.0,30.24,ESE,106,0.0,0.0,76,0.00,,,0.00,,2013-03-07 02:52:00,
2013-03-06 22:02:00,34.0,27.0,30.24,ESE,106,0.0,0.0,76,0.00,,,0.00,,2013-03-07 03:02:00,
2013-03-06 22:11:00,34.0,27.0,30.24,ESE,107,0.0,0.0,76,0.00,,,0.00,,2013-03-07 03:11:00,
2013-03-06 22:22:00,34.0,27.0,30.24,ESE,107,0.0,0.0,76,0.00,,,0.00,,2013-03-07 03:22:00,
2013-03-06 22:32:00,34.0,28.0,30.24,ESE,106,0.0,5.0,79,0.00,,,0.00,,2013-03-07 03:32:00,
2013-03-06 22:42:00,34.0,28.0,30.24,ESE,106,0.0,5.0,79,0.00,,,0.00,,2013-03-07 03:42:00,
2013-03-06 22:52:00,34.0,29.0,30.24,ESE,106,0.0,0.0,81,0.00,,,0.00,,2013-03-07 03:52:00,
2013-03-06 23:02:00,34.0,28.0,30.24,ESE,106,0.0,0.0,79,0.00,,,0.00,,2013-03-07 04:02:00,
2013-03-06 23:12:00,34.0,28.0,30.24,ESE,106,0.0,0.0,79,0.00,,,0.00,,2013-03-07 04:12:00,
2013-03-06 23:22:00,34.0,28.0,30.24,ESE,105,0.0,0.0,79,0.00,,,0.00,,2013-03-07 04:22:00,
2013-03-06 23:32:00,34.0,29.0,30.24,ESE,105,0.0,0.0,81,0.00,,,0.00,,2013-03-07 04:32:00,
2013-03-06 23:42:00,34.0,29.0,30.24,ESE,105,0.0,0.0,81,0.00,,,0.00,,2013-03-07 04:42:00,
2013-03-06 23:52:00,34.0,29.0,30.24,ESE,104,0.0,0.0,81,0.00,,,0.00,,2013-03-07 04:52:00,